createdAt,value
2019-06-26T00:00:47.085Z,96127.48
2019-06-26T00:03:16.311Z,96130.37
2019-06-26T00:05:45.513Z,96130.66
2019-06-26T00:08:14.693Z,96129.92
2019-06-26T00:10:43.808Z,96134.13
2019-06-26T00:13:25.624Z,96129.87
2019-06-26T00:15:43.798Z,96131.72
2019-06-26T00:18:13.009Z,96136.63
2019-06-26T00:20:42.130Z,96139.55
2019-06-26T00:23:11.733Z,96141.72
2019-06-26T00:25:41.011Z,96142.30
2019-06-26T00:28:10.143Z,96136.97
2019-06-26T00:30:39.262Z,96140.50
2019-06-26T00:33:08.370Z,96138.59
2019-06-26T00:35:37.734Z,96136.88
2019-06-26T00:38:06.871Z,96136.59
2019-06-26T00:40:36.013Z,96136.80
2019-06-26T00:43:05.157Z,96134.64
2019-06-26T00:45:34.280Z,96131.69
2019-06-26T00:48:03.424Z,96134.34
2019-06-26T00:50:32.572Z,96132.64
2019-06-26T00:53:01.809Z,96136.37
2019-06-26T00:55:30.939Z,96134.80
2019-06-26T00:58:00.059Z,96137.81
2019-06-26T01:00:34.831Z,96142.41
2019-06-26T01:03:03.965Z,96136.94
2019-06-26T01:05:33.102Z,96133.23
2019-06-26T01:08:02.275Z,96130.02
2019-06-26T01:10:31.417Z,96131.84
2019-06-26T01:13:00.577Z,96138.19
2019-06-26T01:15:29.925Z,96133.45
2019-06-26T01:17:59.033Z,96134.69
2019-06-26T01:20:28.202Z,96135.27
2019-06-26T01:22:57.520Z,96137.83
2019-06-26T01:25:26.629Z,96134.31
2019-06-26T01:27:55.791Z,96129.00
2019-06-26T01:30:25.326Z,96132.73
2019-06-26T01:32:55.068Z,96137.30
2019-06-26T01:35:24.182Z,96135.59
2019-06-26T01:37:53.342Z,96134.27
2019-06-26T01:40:23.350Z,96133.89
2019-06-26T01:42:52.455Z,96136.45
2019-06-26T01:45:21.631Z,96136.82
2019-06-26T01:47:50.818Z,96139.59
2019-06-26T01:50:20.376Z,96137.89
2019-06-26T01:52:49.581Z,96140.44
2019-06-26T01:55:18.793Z,96141.88
2019-06-26T01:57:47.935Z,96132.57
2019-06-26T02:00:17.549Z,96140.55
2019-06-26T02:02:46.721Z,96139.67
2019-06-26T02:05:16.152Z,96143.58
2019-06-26T02:07:45.251Z,96146.52
2019-06-26T02:10:14.773Z,96151.00
2019-06-26T02:12:44.021Z,96152.41
2019-06-26T02:15:13.498Z,96151.45
2019-06-26T02:17:42.655Z,96147.38
2019-06-26T02:20:12.203Z,96153.08
2019-06-26T02:22:41.458Z,96149.67
2019-06-26T02:25:10.796Z,96150.05
2019-06-26T02:27:40.002Z,96152.78
2019-06-26T02:30:09.399Z,96155.63
2019-06-26T02:32:38.524Z,96158.11
2019-06-26T02:35:10.212Z,96157.53
2019-06-26T02:37:39.824Z,96156.02
2019-06-26T02:40:09.587Z,96160.47
2019-06-26T02:42:39.044Z,96158.11
2019-06-26T02:45:08.434Z,96156.37
2019-06-26T02:47:37.547Z,96152.38
2019-06-26T02:50:07.272Z,96158.27
2019-06-26T02:52:36.400Z,96155.53
2019-06-26T02:55:06.066Z,96154.01
2019-06-26T02:57:35.237Z,96152.37
2019-06-26T03:00:05.677Z,96158.18
2019-06-26T03:02:34.807Z,96157.80
2019-06-26T03:05:04.041Z,96150.78
2019-06-26T03:07:33.384Z,96154.77
2019-06-26T03:10:02.493Z,96159.13
2019-06-26T03:12:31.702Z,96151.54
2019-06-26T03:15:08.687Z,96151.54
2019-06-26T03:17:31.858Z,96153.81
2019-06-26T03:20:00.956Z,96151.23
2019-06-26T03:22:30.096Z,96149.15
2019-06-26T03:24:59.236Z,96157.67
2019-06-26T03:27:28.458Z,96153.20
2019-06-26T03:29:57.618Z,96157.74
2019-06-26T03:32:26.804Z,96162.11
2019-06-26T03:34:55.977Z,96160.58
2019-06-26T03:37:25.336Z,96163.62
2019-06-26T03:39:54.492Z,96166.20
2019-06-26T03:42:23.734Z,96166.66
2019-06-26T03:44:52.856Z,96165.80
2019-06-26T03:47:22.071Z,96169.22
2019-06-26T03:49:51.198Z,96162.97
2019-06-26T03:52:20.330Z,96167.13
2019-06-26T03:54:49.481Z,96172.72
2019-06-26T03:57:18.588Z,96177.46
2019-06-26T03:59:47.864Z,96174.73
2019-06-26T04:02:17.017Z,96177.27
2019-06-26T04:04:46.171Z,96180.42
2019-06-26T04:07:15.277Z,96180.68
2019-06-26T04:09:44.422Z,96176.63
2019-06-26T04:12:13.611Z,96180.61
2019-06-26T04:14:42.758Z,96178.33
2019-06-26T04:17:11.850Z,96180.31
2019-06-26T04:19:41.010Z,96182.89
2019-06-26T04:22:10.136Z,96183.27
2019-06-26T04:24:39.267Z,96178.61
2019-06-26T04:27:09.201Z,96177.02
2019-06-26T04:29:38.348Z,96177.78
2019-06-26T04:32:09.887Z,96178.05
2019-06-26T04:34:39.029Z,96183.98
2019-06-26T04:37:08.230Z,96183.41
2019-06-26T04:39:37.373Z,96188.59
2019-06-26T04:42:06.516Z,96183.67
2019-06-26T04:44:35.680Z,96182.84
2019-06-26T04:47:04.826Z,96185.88
2019-06-26T04:49:33.956Z,96190.14
2019-06-26T04:52:03.128Z,96193.56
2019-06-26T04:54:32.320Z,96192.20
2019-06-26T04:57:01.463Z,96196.19
2019-06-26T04:59:30.633Z,96198.92
2019-06-26T05:01:59.868Z,96205.87
2019-06-26T05:04:29.018Z,96200.25
2019-06-26T05:06:58.188Z,96203.97
2019-06-26T05:09:27.306Z,96196.84
2019-06-26T05:11:56.508Z,96201.20
2019-06-26T05:14:25.646Z,96200.36
2019-06-26T05:16:54.940Z,96197.32
2019-06-26T05:19:24.144Z,96205.75
2019-06-26T05:21:53.253Z,96202.82
2019-06-26T05:24:22.464Z,96203.27
2019-06-26T05:26:51.696Z,96205.66
2019-06-26T05:29:20.850Z,96201.74
2019-06-26T05:31:50.052Z,96206.88
2019-06-26T05:34:19.218Z,96208.97
2019-06-26T05:36:48.418Z,96211.36
2019-06-26T05:39:18.041Z,96208.50
2019-06-26T05:41:47.160Z,96208.86
2019-06-26T05:46:40.838Z,96215.90
2019-06-26T05:49:10.049Z,96220.94
2019-06-26T05:51:39.181Z,96219.49
2019-06-26T05:54:08.542Z,96223.76
2019-06-26T05:56:37.643Z,96222.79
2019-06-26T05:59:06.899Z,96230.92
2019-06-26T06:01:36.047Z,96231.08
2019-06-26T06:04:05.188Z,96232.27
2019-06-26T06:06:41.675Z,96230.84
2019-06-26T06:09:06.947Z,96231.48
2019-06-26T06:11:36.097Z,96228.58
2019-06-26T06:14:05.400Z,96227.20
2019-06-26T06:16:46.967Z,96232.87
2019-06-26T06:19:06.032Z,96235.28
2019-06-26T06:21:35.204Z,96237.66
2019-06-26T06:24:04.572Z,96235.07
2019-06-26T06:26:33.767Z,96235.86
2019-06-26T06:29:03.026Z,96240.40
2019-06-26T06:31:32.182Z,96240.51
2019-06-26T06:34:01.364Z,96250.75
2019-06-26T06:36:31.865Z,96251.81
2019-06-26T06:39:00.989Z,96251.39
2019-06-26T06:41:30.201Z,96250.50
2019-06-26T06:43:59.379Z,96254.44
2019-06-26T06:46:28.550Z,96248.18
2019-06-26T06:48:57.709Z,96250.78
2019-06-26T06:51:26.838Z,96254.85
2019-06-26T06:53:56.016Z,96251.84
2019-06-26T06:56:25.163Z,96255.44
2019-06-26T06:58:54.403Z,96261.30
2019-06-26T07:01:23.513Z,96262.57
2019-06-26T07:03:52.674Z,96250.48
2019-06-26T07:06:21.901Z,96260.03
2019-06-26T07:08:51.067Z,96256.64
2019-06-26T07:11:20.215Z,96261.08
2019-06-26T07:13:49.619Z,96255.88
2019-06-26T07:16:18.819Z,96262.98
2019-06-26T07:18:48.006Z,96264.97
2019-06-26T07:21:17.140Z,96257.34
2019-06-26T07:23:46.303Z,96262.91
2019-06-26T07:26:15.522Z,96269.28
2019-06-26T07:28:44.669Z,96261.17
2019-06-26T07:31:13.783Z,96264.59
2019-06-26T07:33:43.000Z,96270.71
2019-06-26T07:36:12.177Z,96268.91
2019-06-26T07:38:41.321Z,96268.81
2019-06-26T07:41:10.651Z,96271.89
2019-06-26T07:43:39.875Z,96276.31
2019-06-26T07:46:09.041Z,96279.62
2019-06-26T07:48:38.221Z,96272.22
2019-06-26T07:51:07.370Z,96273.22
2019-06-26T07:53:36.509Z,96274.94
2019-06-26T07:56:05.647Z,96271.78
2019-06-26T07:58:34.777Z,96270.47
2019-06-26T08:01:03.973Z,96273.27
2019-06-26T08:03:33.151Z,96275.97
2019-06-26T08:06:02.417Z,96277.45
2019-06-26T08:08:31.554Z,96274.28
2019-06-26T08:11:00.768Z,96277.82
2019-06-26T08:13:29.871Z,96282.08
2019-06-26T08:15:59.112Z,96278.55
2019-06-26T08:18:28.228Z,96283.54
2019-06-26T08:21:11.396Z,96288.14
2019-06-26T08:23:28.349Z,96291.81
2019-06-26T08:25:57.465Z,96293.16
2019-06-26T08:28:26.693Z,96294.23
2019-06-26T08:30:55.822Z,96292.03
2019-06-26T08:33:24.975Z,96287.72
2019-06-26T08:35:54.646Z,96290.46
2019-06-26T08:38:23.775Z,96284.37
2019-06-26T08:40:52.906Z,96288.56
2019-06-26T08:43:22.051Z,96287.77
2019-06-26T08:45:51.223Z,96287.77
2019-06-26T08:48:38.264Z,96284.67
2019-06-26T08:50:51.333Z,96288.80
2019-06-26T08:53:20.482Z,96289.16
2019-06-26T08:55:49.655Z,96288.28
2019-06-26T08:58:18.791Z,96292.66
2019-06-26T09:00:47.926Z,96289.48
2019-06-26T09:03:17.056Z,96290.09
2019-06-26T09:05:48.435Z,96290.09
2019-06-26T09:08:17.245Z,96294.88
2019-06-26T09:10:46.401Z,96291.80
2019-06-26T09:13:15.495Z,96290.73
2019-06-26T09:15:44.586Z,96294.52
2019-06-26T09:18:13.708Z,96292.13
2019-06-26T09:20:43.159Z,96293.71
2019-06-26T09:23:12.389Z,96286.99
2019-06-26T09:25:41.569Z,96291.91
2019-06-26T09:28:10.690Z,96296.74
2019-06-26T09:30:39.827Z,96288.67
2019-06-26T09:33:08.996Z,96288.80
2019-06-26T09:35:38.111Z,96296.25
2019-06-26T09:38:07.215Z,96292.66
2019-06-26T09:40:36.374Z,96294.66
2019-06-26T09:43:05.535Z,96297.55
2019-06-26T09:45:34.679Z,96295.20
2019-06-26T09:48:03.898Z,96298.20
2019-06-26T09:50:33.054Z,96300.39
2019-06-26T09:53:05.168Z,96301.09
2019-06-26T09:55:33.093Z,96298.91
2019-06-26T09:58:02.219Z,96298.70
2019-06-26T10:00:32.149Z,96294.78
2019-06-26T10:03:01.288Z,96293.92
2019-06-26T10:05:30.413Z,96297.97
2019-06-26T10:07:59.550Z,96297.82
2019-06-26T10:10:28.667Z,96296.50
2019-06-26T10:12:57.816Z,96293.84
2019-06-26T10:15:26.987Z,96293.09
2019-06-26T10:17:56.197Z,96290.97
2019-06-26T10:20:25.370Z,96293.91
2019-06-26T10:22:54.538Z,96294.89
2019-06-26T10:25:23.734Z,96296.63
2019-06-26T10:27:52.861Z,96288.09
2019-06-26T10:30:22.783Z,96285.67
2019-06-26T10:32:51.872Z,96290.83
2019-06-26T10:35:21.166Z,96292.62
2019-06-26T10:37:50.403Z,96290.02
2019-06-26T10:40:19.907Z,96287.05
2019-06-26T10:42:49.028Z,96287.43
2019-06-26T10:45:18.902Z,96291.33
2019-06-26T10:47:48.011Z,96292.66
2019-06-26T10:50:17.208Z,96281.54
2019-06-26T10:52:46.375Z,96288.74
2019-06-26T10:55:15.564Z,96287.95
2019-06-26T10:57:44.717Z,96283.03
2019-06-26T11:00:14.402Z,96278.83
2019-06-26T11:02:43.533Z,96278.20
2019-06-26T11:05:14.853Z,96271.99
2019-06-26T11:07:44.083Z,96280.02
2019-06-26T11:10:13.443Z,96279.79
2019-06-26T11:12:42.612Z,96275.27
2019-06-26T11:15:12.962Z,96273.75
2019-06-26T11:17:42.144Z,96278.05
2019-06-26T11:20:11.848Z,96279.09
2019-06-26T11:22:41.150Z,96271.11
2019-06-26T11:25:10.893Z,96271.44
2019-06-26T11:27:42.880Z,96262.91
2019-06-26T11:30:12.755Z,96264.98
2019-06-26T11:32:42.052Z,96266.13
2019-06-26T11:35:11.522Z,96270.69
2019-06-26T11:37:40.873Z,96260.23
2019-06-26T11:40:10.569Z,96266.55
2019-06-26T11:42:39.869Z,96258.33
2019-06-26T11:45:09.729Z,96269.17
2019-06-26T11:47:39.009Z,96264.78
2019-06-26T11:50:08.983Z,96264.28
2019-06-26T11:52:38.284Z,96263.43
2019-06-26T11:55:07.887Z,96266.48
2019-06-26T11:57:37.040Z,96258.18
2019-06-26T12:00:08.394Z,96260.22
2019-06-26T12:02:37.615Z,96264.14
2019-06-26T12:05:07.854Z,96263.63
2019-06-26T12:07:36.976Z,96261.06
2019-06-26T12:10:07.019Z,96255.32
2019-06-26T12:12:36.181Z,96254.30
2019-06-26T12:15:06.488Z,96257.19
2019-06-26T12:17:35.798Z,96253.66
2019-06-26T12:20:17.987Z,96244.00
2019-06-26T12:22:36.374Z,96244.56
2019-06-26T12:25:05.927Z,96245.39
2019-06-26T12:27:35.049Z,96240.98
2019-06-26T12:30:05.769Z,96239.82
2019-06-26T12:32:41.745Z,96236.95
2019-06-26T12:35:06.543Z,96239.32
2019-06-26T12:37:38.068Z,96236.94
2019-06-26T12:40:08.015Z,96231.66
2019-06-26T12:42:37.289Z,96235.06
2019-06-26T12:45:06.640Z,96233.71
2019-06-26T12:47:35.821Z,96225.58
2019-06-26T12:50:05.416Z,96228.62
2019-06-26T12:52:34.598Z,96219.80
2019-06-26T12:55:04.360Z,96228.30
2019-06-26T12:57:33.491Z,96220.50
2019-06-26T13:00:02.910Z,96216.27
2019-06-26T13:02:32.166Z,96225.08
2019-06-26T13:05:01.306Z,96214.02
2019-06-26T13:07:30.522Z,96221.10
2019-06-26T13:09:59.657Z,96215.66
2019-06-26T13:12:29.162Z,96214.64
2019-06-26T13:14:58.270Z,96217.88
2019-06-26T13:17:27.492Z,96214.27
2019-06-26T13:19:56.642Z,96213.58
2019-06-26T13:22:25.929Z,96212.63
2019-06-26T13:24:55.178Z,96210.11
2019-06-26T13:27:24.350Z,96200.23
2019-06-26T13:29:53.508Z,96208.37
2019-06-26T13:32:22.757Z,96206.37
2019-06-26T13:34:51.925Z,96209.48
2019-06-26T13:37:21.090Z,96206.41
2019-06-26T13:39:50.276Z,96209.95
2019-06-26T13:42:19.780Z,96218.55
2019-06-26T13:44:48.943Z,96209.55
2019-06-26T13:47:18.145Z,96207.98
2019-06-26T13:49:47.378Z,96205.08
2019-06-26T13:52:16.544Z,96208.44
2019-06-26T13:54:45.839Z,96210.55
2019-06-26T13:57:15.987Z,96205.64
2019-06-26T13:59:45.312Z,96207.73
2019-06-26T14:02:14.464Z,96208.40
2019-06-26T14:04:43.656Z,96203.45
2019-06-26T14:07:13.323Z,96207.83
2019-06-26T14:09:42.469Z,96197.36
2019-06-26T14:12:11.669Z,96197.32
2019-06-26T14:14:56.565Z,96199.28
2019-06-26T14:17:11.671Z,96198.78
2019-06-26T14:19:40.872Z,96199.33
2019-06-26T14:22:13.012Z,96196.92
2019-06-26T14:24:41.539Z,96197.55
2019-06-26T14:27:11.289Z,96196.52
2019-06-26T14:29:40.714Z,96190.99
2019-06-26T14:32:10.439Z,96186.17
2019-06-26T14:34:39.831Z,96190.86
2019-06-26T14:37:09.420Z,96192.19
2019-06-26T14:39:41.066Z,96192.64
2019-06-26T14:42:10.230Z,96193.22
2019-06-26T14:44:39.835Z,96189.05
2019-06-26T14:47:09.354Z,96192.03
2019-06-26T14:49:38.582Z,96189.92
2019-06-26T14:52:08.065Z,96184.36
2019-06-26T14:54:37.519Z,96175.20
2019-06-26T14:57:06.891Z,96182.45
2019-06-26T14:59:36.341Z,96175.91
2019-06-26T15:02:06.101Z,96180.84
2019-06-26T15:04:35.834Z,96188.91
2019-06-26T15:07:05.118Z,96177.31
2019-06-26T15:09:34.411Z,96177.23
2019-06-26T15:12:03.834Z,96167.72
2019-06-26T15:14:33.004Z,96169.84
2019-06-26T15:17:02.348Z,96173.31
2019-06-26T15:19:31.541Z,96166.34
2019-06-26T15:22:00.850Z,96166.03
2019-06-26T15:24:30.139Z,96166.03
2019-06-26T15:26:59.324Z,96158.47
2019-06-26T15:29:28.479Z,96160.23
2019-06-26T15:31:57.721Z,96161.49
2019-06-26T15:34:26.890Z,96157.57
2019-06-26T15:36:56.048Z,96152.86
2019-06-26T15:39:25.327Z,96154.47
2019-06-26T15:41:54.478Z,96149.39
2019-06-26T15:44:23.606Z,96155.75
2019-06-26T15:46:52.849Z,96150.52
2019-06-26T15:49:21.974Z,96143.51
2019-06-26T15:51:51.148Z,96147.84
2019-06-26T15:54:20.353Z,96149.67
2019-06-26T15:56:49.533Z,96142.42
2019-06-26T15:59:18.734Z,96144.42
2019-06-26T16:01:47.983Z,96147.30
2019-06-26T16:04:17.213Z,96145.83
2019-06-26T16:06:46.443Z,96142.92
2019-06-26T16:09:15.632Z,96141.88
2019-06-26T16:11:44.767Z,96139.28
2019-06-26T16:14:14.009Z,96142.11
2019-06-26T16:16:44.746Z,96138.81
2019-06-26T16:19:16.424Z,96143.03
2019-06-26T16:21:45.588Z,96132.45
2019-06-26T16:24:14.773Z,96144.78
2019-06-26T16:26:43.942Z,96138.18
2019-06-26T16:29:13.155Z,96135.91
2019-06-26T16:32:48.925Z,96134.05
2019-06-26T16:35:18.140Z,96134.23
2019-06-26T16:37:47.307Z,96132.89
2019-06-26T16:40:16.541Z,96133.55
2019-06-26T16:42:45.700Z,96136.44
2019-06-26T16:45:16.567Z,96128.46
2019-06-26T16:47:45.744Z,96133.86
2019-06-26T16:50:15.222Z,96126.27
2019-06-26T16:52:49.105Z,96135.59
2019-06-26T16:55:15.292Z,96133.02
2019-06-26T16:57:44.481Z,96127.12
2019-06-26T17:00:15.242Z,96129.80
2019-06-26T17:02:44.443Z,96121.58
2019-06-26T17:05:14.024Z,96122.73
2019-06-26T17:07:44.418Z,96125.13
2019-06-26T17:10:14.186Z,96124.82
2019-06-26T17:12:43.375Z,96123.77
2019-06-26T17:15:13.044Z,96121.59
2019-06-26T17:17:42.338Z,96124.31
2019-06-26T17:20:11.536Z,96123.22
2019-06-26T17:22:40.718Z,96127.77
2019-06-26T17:25:10.467Z,96125.66
2019-06-26T17:27:39.675Z,96127.81
2019-06-26T17:30:09.746Z,96128.59
2019-06-26T17:32:38.930Z,96134.14
2019-06-26T17:35:08.361Z,96132.00
2019-06-26T17:37:37.580Z,96124.94
2019-06-26T17:40:07.048Z,96123.84
2019-06-26T17:42:36.229Z,96121.55
2019-06-26T17:45:06.003Z,96128.27
2019-06-26T17:47:35.167Z,96123.22
2019-06-26T17:50:06.228Z,96124.78
2019-06-26T17:52:38.234Z,96129.10
2019-06-26T17:55:06.900Z,96123.34
2019-06-26T17:57:36.059Z,96130.81
2019-06-26T18:00:06.543Z,96133.00
2019-06-26T18:02:36.063Z,96125.57
2019-06-26T18:05:06.017Z,96129.30
2019-06-26T18:07:35.257Z,96133.92
2019-06-26T18:10:04.900Z,96131.38
2019-06-26T18:12:34.111Z,96128.69
2019-06-26T18:15:03.490Z,96126.48
2019-06-26T18:19:23.131Z,96130.04
2019-06-26T18:21:52.312Z,96130.20
2019-06-26T18:24:22.834Z,96133.59
2019-06-26T18:26:51.974Z,96130.88
2019-06-26T18:29:21.098Z,96130.69
2019-06-26T18:31:50.288Z,96133.34
2019-06-26T18:34:19.580Z,96128.25
2019-06-26T18:36:48.757Z,96135.66
2019-06-26T18:39:17.890Z,96132.41
2019-06-26T18:41:47.122Z,96127.78
2019-06-26T18:44:16.285Z,96128.43
2019-06-26T18:46:45.578Z,96130.42
2019-06-26T18:49:14.873Z,96138.82
2019-06-26T18:51:44.062Z,96140.91
2019-06-26T18:54:13.282Z,96137.48
2019-06-26T18:56:42.500Z,96139.63
2019-06-26T18:59:11.729Z,96136.19
2019-06-26T19:01:40.893Z,96145.73
2019-06-26T19:04:10.055Z,96142.43
2019-06-26T19:06:39.221Z,96142.02
2019-06-26T19:09:08.394Z,96139.92
2019-06-26T19:11:37.507Z,96146.57
2019-06-26T19:14:06.706Z,96143.63
2019-06-26T19:16:36.531Z,96146.36
2019-06-26T19:19:05.793Z,96149.30
2019-06-26T19:21:37.091Z,96148.87
2019-06-26T19:24:10.216Z,96151.66
2019-06-26T19:26:36.868Z,96150.88
2019-06-26T19:29:06.144Z,96159.98
2019-06-26T19:31:35.371Z,96163.58
2019-06-26T19:34:04.589Z,96161.97
2019-06-26T19:36:49.135Z,96163.09
2019-06-26T19:39:06.985Z,96163.64
2019-06-26T19:41:36.119Z,96161.97
2019-06-26T19:44:08.707Z,96167.77
2019-06-26T19:46:36.326Z,96169.97
2019-06-26T19:49:05.514Z,96167.30
2019-06-26T19:51:34.702Z,96166.34
2019-06-26T19:54:05.991Z,96172.25
2019-06-26T19:56:35.188Z,96173.48
2019-06-26T19:59:04.375Z,96171.53
2019-06-26T20:01:33.578Z,96170.41
2019-06-26T20:04:02.720Z,96167.45
2019-06-26T20:06:31.999Z,96168.03
2019-06-26T20:09:01.302Z,96169.88
2019-06-26T20:11:30.474Z,96167.60
2019-06-26T20:13:59.757Z,96166.47
2019-06-26T20:16:29.024Z,96172.42
2019-06-26T20:18:58.287Z,96160.84
2019-06-26T20:21:27.492Z,96165.67
2019-06-26T20:23:56.682Z,96160.51
2019-06-26T20:26:25.968Z,96163.59
2019-06-26T20:28:55.339Z,96164.59
2019-06-26T20:31:24.609Z,96161.91
2019-06-26T20:33:53.883Z,96163.41
2019-06-26T20:36:23.185Z,96158.15
2019-06-26T20:38:52.386Z,96165.08
2019-06-26T20:41:22.133Z,96164.05
2019-06-26T20:43:51.665Z,96163.55
2019-06-26T20:46:20.940Z,96165.32
2019-06-26T20:48:50.077Z,96164.02
2019-06-26T20:51:20.912Z,96160.03
2019-06-26T20:53:50.381Z,96163.62
2019-06-26T20:56:19.593Z,96157.09
2019-06-26T20:58:48.936Z,96164.01
2019-06-26T21:01:18.170Z,96166.17
2019-06-26T21:03:47.544Z,96158.92
2019-06-26T21:06:16.727Z,96157.61
2019-06-26T21:08:45.947Z,96162.06
2019-06-26T21:11:15.929Z,96158.77
2019-06-26T21:13:45.270Z,96160.89
2019-06-26T21:16:14.430Z,96158.23
2019-06-26T21:18:43.588Z,96167.45
2019-06-26T21:21:12.874Z,96167.63
2019-06-26T21:23:42.042Z,96169.85
2019-06-26T21:26:11.234Z,96165.28
2019-06-26T21:28:40.406Z,96164.34
2019-06-26T21:31:09.627Z,96165.45
2019-06-26T21:33:38.974Z,96170.23
2019-06-26T21:36:08.160Z,96171.12
2019-06-26T21:38:37.350Z,96170.89
2019-06-26T21:41:06.539Z,96174.67
2019-06-26T21:43:35.767Z,96177.61
2019-06-26T21:46:04.959Z,96178.12
2019-06-26T21:48:34.110Z,96172.91
2019-06-26T21:51:03.555Z,96173.02
2019-06-26T21:53:32.776Z,96177.30
2019-06-26T21:56:02.000Z,96176.48
2019-06-26T21:58:31.318Z,96178.91
2019-06-26T22:01:00.476Z,96183.34
2019-06-26T22:03:30.868Z,96179.57
2019-06-26T22:06:00.099Z,96184.42
2019-06-26T22:08:29.273Z,96178.84
2019-06-26T22:10:58.545Z,96172.25
2019-06-26T22:13:29.275Z,96175.70
2019-06-26T22:15:58.413Z,96169.97
2019-06-26T22:18:27.614Z,96169.61
2019-06-26T22:20:56.852Z,96164.61
2019-06-26T22:23:25.966Z,96172.41
2019-06-26T22:25:55.184Z,96173.89
2019-06-26T22:28:24.325Z,96170.73
2019-06-26T22:30:53.488Z,96172.80
2019-06-26T22:33:22.627Z,96175.70
2019-06-26T22:35:51.819Z,96175.59
2019-06-26T22:38:20.999Z,96171.61
2019-06-26T22:40:50.213Z,96169.44
2019-06-26T22:43:19.403Z,96175.05
2019-06-26T22:45:48.547Z,96172.05
2019-06-26T22:48:17.709Z,96173.62
2019-06-26T22:50:48.242Z,96172.16
2019-06-26T22:53:17.390Z,96169.02
2019-06-26T22:55:46.588Z,96169.48
2019-06-26T22:58:15.769Z,96177.12
2019-06-26T23:00:47.692Z,96173.34
2019-06-26T23:03:16.040Z,96175.68
2019-06-26T23:05:45.199Z,96176.89
2019-06-26T23:08:14.602Z,96178.83
2019-06-26T23:10:43.877Z,96178.48
2019-06-26T23:13:13.082Z,96179.45
2019-06-26T23:15:42.311Z,96177.85
2019-06-26T23:18:11.510Z,96178.36
2019-06-26T23:20:41.151Z,96174.95
2019-06-26T23:23:10.324Z,96176.89
2019-06-26T23:25:39.463Z,96173.73
2019-06-26T23:28:08.657Z,96172.73
2019-06-26T23:30:37.839Z,96170.06
2019-06-26T23:33:07.062Z,96169.47
2019-06-26T23:35:36.195Z,96174.08
2019-06-26T23:38:05.788Z,96168.61
2019-06-26T23:40:34.932Z,96167.37
2019-06-26T23:43:04.083Z,96168.11
2019-06-26T23:45:33.244Z,96164.18
2019-06-26T23:48:02.464Z,96161.75
2019-06-26T23:50:31.632Z,96162.58
2019-06-26T23:53:00.874Z,96155.42
2019-06-26T23:55:30.002Z,96157.94
2019-06-26T23:57:59.772Z,96153.20
